sensor_id;sensor_type;location;lat;lon;timestamp;temperature;humidity
76139;DHT22;65138;50.946;7.074;2022-12-18T05:46:14;17.20;35.50
76139;DHT22;65138;50.946;7.074;2022-12-18T05:48:41;16.90;36.30
76139;DHT22;65138;50.946;7.074;2022-12-18T05:51:09;16.70;35.70
76139;DHT22;65138;50.946;7.074;2022-12-18T05:53:35;16.90;35.40
76139;DHT22;65138;50.946;7.074;2022-12-18T05:56:03;17.20;35.70
76139;DHT22;65138;50.946;7.074;2022-12-18T05:58:29;17.40;36.40
76139;DHT22;65138;50.946;7.074;2022-12-18T06:00:56;17.50;36.40
76139;DHT22;65138;50.946;7.074;2022-12-18T06:03:21;17.60;36.80
76139;DHT22;65138;50.946;7.074;2022-12-18T06:05:47;17.80;37.20
76139;DHT22;65138;50.946;7.074;2022-12-18T06:08:13;17.80;37.20
76139;DHT22;65138;50.946;7.074;2022-12-18T06:10:40;17.80;37.30
76139;DHT22;65138;50.946;7.074;2022-12-18T06:13:07;17.90;37.00
76139;DHT22;65138;50.946;7.074;2022-12-18T06:15:35;17.90;37.10
76139;DHT22;65138;50.946;7.074;2022-12-18T06:18:01;17.90;37.10
76139;DHT22;65138;50.946;7.074;2022-12-18T06:20:26;18.00;37.20
76139;DHT22;65138;50.946;7.074;2022-12-18T06:22:52;18.00;37.30
76139;DHT22;65138;50.946;7.074;2022-12-18T06:25:17;18.00;37.20
76139;DHT22;65138;50.946;7.074;2022-12-18T06:27:43;18.00;37.00
76139;DHT22;65138;50.946;7.074;2022-12-18T06:30:09;18.10;37.00
76139;DHT22;65138;50.946;7.074;2022-12-18T06:32:35;18.10;37.00
76139;DHT22;65138;50.946;7.074;2022-12-18T06:35:01;18.10;36.60
76139;DHT22;65138;50.946;7.074;2022-12-18T06:37:26;18.10;37.00
76139;DHT22;65138;50.946;7.074;2022-12-18T06:39:53;18.10;37.20
76139;DHT22;65138;50.946;7.074;2022-12-18T06:42:18;18.20;37.10
76139;DHT22;65138;50.946;7.074;2022-12-18T06:44:44;18.20;37.20
76139;DHT22;65138;50.946;7.074;2022-12-18T06:47:10;18.20;37.10
76139;DHT22;65138;50.946;7.074;2022-12-18T06:49:36;18.20;37.90
76139;DHT22;65138;50.946;7.074;2022-12-18T06:52:01;18.10;37.30
76139;DHT22;65138;50.946;7.074;2022-12-18T06:54:27;18.10;37.10
76139;DHT22;65138;50.946;7.074;2022-12-18T06:56:52;18.00;37.20
76139;DHT22;65138;50.946;7.074;2022-12-18T06:59:18;18.00;37.00
76139;DHT22;65138;50.946;7.074;2022-12-18T07:01:44;18.00;36.90
76139;DHT22;65138;50.946;7.074;2022-12-18T07:04:09;18.00;36.80
76139;DHT22;65138;50.946;7.074;2022-12-18T07:06:35;18.10;36.50
76139;DHT22;65138;50.946;7.074;2022-12-18T07:09:01;18.10;36.80
76139;DHT22;65138;50.946;7.074;2022-12-18T07:11:26;18.10;36.70
76139;DHT22;65138;50.946;7.074;2022-12-18T07:13:52;18.00;36.60
76139;DHT22;65138;50.946;7.074;2022-12-18T07:16:20;18.00;36.50
76139;DHT22;65138;50.946;7.074;2022-12-18T07:18:46;18.10;36.50
76139;DHT22;65138;50.946;7.074;2022-12-18T07:21:18;18.00;36.70
76139;DHT22;65138;50.946;7.074;2022-12-18T07:23:44;17.90;36.60
76139;DHT22;65138;50.946;7.074;2022-12-18T07:26:14;17.90;36.40
76139;DHT22;65138;50.946;7.074;2022-12-18T07:28:41;17.90;36.60
76139;DHT22;65138;50.946;7.074;2022-12-18T07:31:09;17.60;36.10
76139;DHT22;65138;50.946;7.074;2022-12-18T07:33:36;17.60;36.00
76139;DHT22;65138;50.946;7.074;2022-12-18T07:36:03;17.40;35.70
76139;DHT22;65138;50.946;7.074;2022-12-18T07:38:30;17.50;35.50
76139;DHT22;65138;50.946;7.074;2022-12-18T07:41:04;17.50;35.90
76139;DHT22;65138;50.946;7.074;2022-12-18T07:43:30;17.60;35.90
76139;DHT22;65138;50.946;7.074;2022-12-18T07:45:56;17.90;36.80
76139;DHT22;65138;50.946;7.074;2022-12-18T07:48:21;18.10;36.60
76139;DHT22;65138;50.946;7.074;2022-12-18T07:50:47;18.20;36.60
76139;DHT22;65138;50.946;7.074;2022-12-18T07:53:13;18.30;36.20
76139;DHT22;65138;50.946;7.074;2022-12-18T07:55:40;18.30;36.00
76139;DHT22;65138;50.946;7.074;2022-12-18T07:58:07;18.30;36.00
76139;DHT22;65138;50.946;7.074;2022-12-18T08:00:33;18.40;35.90
76139;DHT22;65138;50.946;7.074;2022-12-18T08:02:59;18.40;37.10
76139;DHT22;65138;50.946;7.074;2022-12-18T08:05:25;18.60;37.40
76139;DHT22;65138;50.946;7.074;2022-12-18T08:07:51;18.80;37.00
76139;DHT22;65138;50.946;7.074;2022-12-18T08:10:16;18.80;37.10
76139;DHT22;65138;50.946;7.074;2022-12-18T08:12:42;18.80;36.60
76139;DHT22;65138;50.946;7.074;2022-12-18T08:15:08;18.70;36.40
76139;DHT22;65138;50.946;7.074;2022-12-18T08:17:33;18.80;36.20
76139;DHT22;65138;50.946;7.074;2022-12-18T08:19:59;18.70;35.40
76139;DHT22;65138;50.946;7.074;2022-12-18T08:22:25;18.80;36.20
76139;DHT22;65138;50.946;7.074;2022-12-18T08:24:50;18.80;36.20
76139;DHT22;65138;50.946;7.074;2022-12-18T08:27:16;18.80;36.20
76139;DHT22;65138;50.946;7.074;2022-12-18T08:29:41;18.70;36.20
76139;DHT22;65138;50.946;7.074;2022-12-18T08:32:07;18.60;36.00
76139;DHT22;65138;50.946;7.074;2022-12-18T08:34:33;18.80;36.10
76139;DHT22;65138;50.946;7.074;2022-12-18T08:36:58;18.90;36.00
76139;DHT22;65138;50.946;7.074;2022-12-18T08:39:24;19.00;36.00
76139;DHT22;65138;50.946;7.074;2022-12-18T08:41:49;19.00;35.80
76139;DHT22;65138;50.946;7.074;2022-12-18T08:44:33;19.00;36.00
76139;DHT22;65138;50.946;7.074;2022-12-18T08:47:06;19.00;36.00
76139;DHT22;65138;50.946;7.074;2022-12-18T08:49:33;19.00;35.90
76139;DHT22;65138;50.946;7.074;2022-12-18T08:51:59;19.10;35.90
76139;DHT22;65138;50.946;7.074;2022-12-18T08:54:24;19.10;35.90
76139;DHT22;65138;50.946;7.074;2022-12-18T08:56:50;19.20;35.90
76139;DHT22;65138;50.946;7.074;2022-12-18T08:59:17;19.20;35.90
76139;DHT22;65138;50.946;7.074;2022-12-18T09:01:43;19.20;35.80
76139;DHT22;65138;50.946;7.074;2022-12-18T09:04:12;19.20;35.40
76139;DHT22;65138;50.946;7.074;2022-12-18T09:06:38;19.20;36.10
76139;DHT22;65138;50.946;7.074;2022-12-18T09:09:04;19.20;35.60
76139;DHT22;65138;50.946;7.074;2022-12-18T09:11:31;19.20;35.60
76139;DHT22;65138;50.946;7.074;2022-12-18T09:13:57;19.20;35.60
76139;DHT22;65138;50.946;7.074;2022-12-18T09:16:25;19.20;35.50
76139;DHT22;65138;50.946;7.074;2022-12-18T09:18:51;19.20;35.40
76139;DHT22;65138;50.946;7.074;2022-12-18T09:21:19;19.20;35.50
76139;DHT22;65138;50.946;7.074;2022-12-18T09:23:49;19.20;35.40
76139;DHT22;65138;50.946;7.074;2022-12-18T09:26:15;19.20;35.70
76139;DHT22;65138;50.946;7.074;2022-12-18T09:28:41;19.20;35.60
76139;DHT22;65138;50.946;7.074;2022-12-18T09:31:08;19.20;35.40
76139;DHT22;65138;50.946;7.074;2022-12-18T09:33:35;19.20;35.10
76139;DHT22;65138;50.946;7.074;2022-12-18T09:36:06;19.30;35.50
76139;DHT22;65138;50.946;7.074;2022-12-18T09:38:33;19.40;35.20
76139;DHT22;65138;50.946;7.074;2022-12-18T09:43:49;19.40;35.00
76139;DHT22;65138;50.946;7.074;2022-12-18T09:47:01;19.40;35.50
76139;DHT22;65138;50.946;7.074;2022-12-18T09:49:12;19.40;35.20
76139;DHT22;65138;50.946;7.074;2022-12-18T09:51:46;19.30;34.70
76139;DHT22;65138;50.946;7.074;2022-12-18T09:54:18;19.40;34.90
76139;DHT22;65138;50.946;7.074;2022-12-18T09:56:45;19.40;35.60
76139;DHT22;65138;50.946;7.074;2022-12-18T09:59:37;19.50;35.30
76139;DHT22;65138;50.946;7.074;2022-12-18T10:04:41;19.50;35.50
76139;DHT22;65138;50.946;7.074;2022-12-18T10:07:21;19.60;35.60
76139;DHT22;65138;50.946;7.074;2022-12-18T10:09:57;19.60;35.70
76139;DHT22;65138;50.946;7.074;2022-12-18T10:12:45;19.60;35.50
76139;DHT22;65138;50.946;7.074;2022-12-18T10:15:27;19.70;35.40
76139;DHT22;65138;50.946;7.074;2022-12-18T10:20:51;19.70;35.50
76139;DHT22;65138;50.946;7.074;2022-12-18T10:23:33;19.70;35.50
76139;DHT22;65138;50.946;7.074;2022-12-18T10:26:07;19.70;35.70
76139;DHT22;65138;50.946;7.074;2022-12-18T10:28:36;19.60;35.50
76139;DHT22;65138;50.946;7.074;2022-12-18T10:31:05;19.60;35.60
76139;DHT22;65138;50.946;7.074;2022-12-18T10:33:32;19.60;35.30
76139;DHT22;65138;50.946;7.074;2022-12-18T10:35:58;19.60;35.40
76139;DHT22;65138;50.946;7.074;2022-12-18T10:38:27;19.60;35.40
76139;DHT22;65138;50.946;7.074;2022-12-18T10:41:05;19.60;35.60
76139;DHT22;65138;50.946;7.074;2022-12-18T10:43:35;19.60;35.60
76139;DHT22;65138;50.946;7.074;2022-12-18T10:46:13;19.60;35.50
76139;DHT22;65138;50.946;7.074;2022-12-18T10:51:23;19.60;35.50
76139;DHT22;65138;50.946;7.074;2022-12-18T10:54:14;19.60;35.80
76139;DHT22;65138;50.946;7.074;2022-12-18T10:56:40;19.60;35.80
76139;DHT22;65138;50.946;7.074;2022-12-18T10:59:09;19.60;36.00
76139;DHT22;65138;50.946;7.074;2022-12-18T11:01:55;19.60;35.70
76139;DHT22;65138;50.946;7.074;2022-12-18T11:04:27;19.50;35.30
76139;DHT22;65138;50.946;7.074;2022-12-18T11:06:59;19.40;35.60
76139;DHT22;65138;50.946;7.074;2022-12-18T11:09:27;19.50;35.50
76139;DHT22;65138;50.946;7.074;2022-12-18T11:11:56;19.50;35.70
76139;DHT22;65138;50.946;7.074;2022-12-18T11:14:33;19.40;35.90
76139;DHT22;65138;50.946;7.074;2022-12-18T11:17:00;19.50;35.60
76139;DHT22;65138;50.946;7.074;2022-12-18T11:19:37;19.50;35.10
76139;DHT22;65138;50.946;7.074;2022-12-18T11:22:19;19.60;35.70
76139;DHT22;65138;50.946;7.074;2022-12-18T11:24:59;19.50;35.70
76139;DHT22;65138;50.946;7.074;2022-12-18T11:27:29;19.50;35.80
76139;DHT22;65138;50.946;7.074;2022-12-18T11:30:08;19.60;35.70
76139;DHT22;65138;50.946;7.074;2022-12-18T11:32:37;19.60;35.70
76139;DHT22;65138;50.946;7.074;2022-12-18T11:38:06;18.60;35.00
76139;DHT22;65138;50.946;7.074;2022-12-18T11:40:38;16.10;33.50
76139;DHT22;65138;50.946;7.074;2022-12-18T11:43:17;15.40;36.90
76139;DHT22;65138;50.946;7.074;2022-12-18T11:48:57;17.80;35.10
76139;DHT22;65138;50.946;7.074;2022-12-18T11:51:30;18.40;34.80
76139;DHT22;65138;50.946;7.074;2022-12-18T11:53:57;18.80;34.80
76139;DHT22;65138;50.946;7.074;2022-12-18T11:59:15;19.00;34.70
76139;DHT22;65138;50.946;7.074;2022-12-18T12:01:51;19.00;34.70
76139;DHT22;65138;50.946;7.074;2022-12-18T12:04:37;19.10;35.20
76139;DHT22;65138;50.946;7.074;2022-12-18T12:13:14;19.30;35.30
76139;DHT22;65138;50.946;7.074;2022-12-18T12:21:14;19.40;35.30
76139;DHT22;65138;50.946;7.074;2022-12-18T12:24:10;19.40;35.00
76139;DHT22;65138;50.946;7.074;2022-12-18T12:26:42;19.40;35.30
76139;DHT22;65138;50.946;7.074;2022-12-18T12:34:49;19.40;35.50
76139;DHT22;65138;50.946;7.074;2022-12-18T12:40:30;19.30;35.40
76139;DHT22;65138;50.946;7.074;2022-12-18T12:43:24;19.30;36.30
76139;DHT22;65138;50.946;7.074;2022-12-18T12:45:58;19.30;35.50
76139;DHT22;65138;50.946;7.074;2022-12-18T12:51:21;19.30;35.50
76139;DHT22;65138;50.946;7.074;2022-12-18T12:53:47;19.30;35.70
76139;DHT22;65138;50.946;7.074;2022-12-18T12:56:16;19.20;35.90
76139;DHT22;65138;50.946;7.074;2022-12-18T13:01:25;19.10;35.90
76139;DHT22;65138;50.946;7.074;2022-12-18T13:03:54;19.00;35.90
76139;DHT22;65138;50.946;7.074;2022-12-18T13:06:37;19.00;35.60
76139;DHT22;65138;50.946;7.074;2022-12-18T13:09:05;19.00;35.70
76139;DHT22;65138;50.946;7.074;2022-12-18T13:11:42;19.00;35.70
76139;DHT22;65138;50.946;7.074;2022-12-18T13:14:31;18.90;35.50
76139;DHT22;65138;50.946;7.074;2022-12-18T13:19:52;18.90;36.20
76139;DHT22;65138;50.946;7.074;2022-12-18T13:22:46;18.90;35.50
76139;DHT22;65138;50.946;7.074;2022-12-18T13:25:34;19.00;35.40
76139;DHT22;65138;50.946;7.074;2022-12-18T13:28:14;18.90;35.50
76139;DHT22;65138;50.946;7.074;2022-12-18T13:35:52;18.90;35.30
76139;DHT22;65138;50.946;7.074;2022-12-18T13:41:22;19.00;35.50
76139;DHT22;65138;50.946;7.074;2022-12-18T13:43:55;18.90;35.50
76139;DHT22;65138;50.946;7.074;2022-12-18T13:46:30;18.90;35.50
76139;DHT22;65138;50.946;7.074;2022-12-18T13:49:39;19.00;35.50
76139;DHT22;65138;50.946;7.074;2022-12-18T13:52:26;19.00;35.70
76139;DHT22;65138;50.946;7.074;2022-12-18T13:54:54;19.00;35.70
76139;DHT22;65138;50.946;7.074;2022-12-18T13:57:32;19.00;35.60
76139;DHT22;65138;50.946;7.074;2022-12-18T13:59:59;19.00;35.20
76139;DHT22;65138;50.946;7.074;2022-12-18T14:02:45;19.00;35.50
76139;DHT22;65138;50.946;7.074;2022-12-18T14:05:30;19.00;35.70
76139;DHT22;65138;50.946;7.074;2022-12-18T14:08:08;19.00;35.70
76139;DHT22;65138;50.946;7.074;2022-12-18T14:10:39;19.00;35.60
76139;DHT22;65138;50.946;7.074;2022-12-18T14:13:07;19.00;35.60
76139;DHT22;65138;50.946;7.074;2022-12-18T14:15:40;19.00;35.50
76139;DHT22;65138;50.946;7.074;2022-12-18T14:20:52;18.90;35.30
76139;DHT22;65138;50.946;7.074;2022-12-18T14:23:38;19.00;35.40
76139;DHT22;65138;50.946;7.074;2022-12-18T14:26:24;19.10;35.20
76139;DHT22;65138;50.946;7.074;2022-12-18T14:28:52;19.30;35.30
76139;DHT22;65138;50.946;7.074;2022-12-18T14:31:20;19.40;35.40
76139;DHT22;65138;50.946;7.074;2022-12-18T14:33:46;19.60;35.50
76139;DHT22;65138;50.946;7.074;2022-12-18T14:36:17;19.40;35.40
76139;DHT22;65138;50.946;7.074;2022-12-18T14:38:42;19.30;35.10
76139;DHT22;65138;50.946;7.074;2022-12-18T14:41:13;19.30;35.10
76139;DHT22;65138;50.946;7.074;2022-12-18T14:43:42;19.30;35.80
76139;DHT22;65138;50.946;7.074;2022-12-18T14:46:36;19.10;35.50
76139;DHT22;65138;50.946;7.074;2022-12-18T14:49:14;19.00;35.60
76139;DHT22;65138;50.946;7.074;2022-12-18T14:51:48;19.10;35.50
76139;DHT22;65138;50.946;7.074;2022-12-18T14:54:17;19.30;36.00
76139;DHT22;65138;50.946;7.074;2022-12-18T14:56:45;19.30;36.10
76139;DHT22;65138;50.946;7.074;2022-12-18T14:59:30;19.40;36.20
76139;DHT22;65138;50.946;7.074;2022-12-18T15:02:27;19.70;38.30
76139;DHT22;65138;50.946;7.074;2022-12-18T15:05:16;19.70;38.80
76139;DHT22;65138;50.946;7.074;2022-12-18T15:07:44;19.60;36.80
76139;DHT22;65138;50.946;7.074;2022-12-18T15:10:30;19.10;36.40
76139;DHT22;65138;50.946;7.074;2022-12-18T15:18:13;18.50;36.30
76139;DHT22;65138;50.946;7.074;2022-12-18T15:23:34;18.60;36.40
76139;DHT22;65138;50.946;7.074;2022-12-18T15:28:37;18.70;36.80
76139;DHT22;65138;50.946;7.074;2022-12-18T15:33:40;18.60;36.20
76139;DHT22;65138;50.946;7.074;2022-12-18T15:36:15;18.50;36.50
76139;DHT22;65138;50.946;7.074;2022-12-18T15:38:41;18.60;36.80
76139;DHT22;65138;50.946;7.074;2022-12-18T15:41:18;18.60;36.60
76139;DHT22;65138;50.946;7.074;2022-12-18T15:43:45;18.60;36.60
76139;DHT22;65138;50.946;7.074;2022-12-18T15:46:17;18.60;36.60
76139;DHT22;65138;50.946;7.074;2022-12-18T15:48:48;18.60;36.70
76139;DHT22;65138;50.946;7.074;2022-12-18T15:51:21;18.60;36.80
76139;DHT22;65138;50.946;7.074;2022-12-18T15:53:49;18.60;36.60
76139;DHT22;65138;50.946;7.074;2022-12-18T15:56:16;18.60;36.60
76139;DHT22;65138;50.946;7.074;2022-12-18T15:59:00;18.60;36.60
76139;DHT22;65138;50.946;7.074;2022-12-18T16:01:29;18.60;36.60
76139;DHT22;65138;50.946;7.074;2022-12-18T16:03:56;18.60;36.70
76139;DHT22;65138;50.946;7.074;2022-12-18T16:06:22;18.60;36.60
76139;DHT22;65138;50.946;7.074;2022-12-18T16:08:48;18.60;36.60
76139;DHT22;65138;50.946;7.074;2022-12-18T16:16:31;18.60;36.80
76139;DHT22;65138;50.946;7.074;2022-12-18T16:18:56;18.60;36.50
76139;DHT22;65138;50.946;7.074;2022-12-18T16:21:22;18.60;36.70
76139;DHT22;65138;50.946;7.074;2022-12-18T16:23:48;18.60;36.80
76139;DHT22;65138;50.946;7.074;2022-12-18T16:26:14;18.60;36.70
76139;DHT22;65138;50.946;7.074;2022-12-18T16:28:39;18.60;36.70
76139;DHT22;65138;50.946;7.074;2022-12-18T16:31:05;18.60;36.60
76139;DHT22;65138;50.946;7.074;2022-12-18T16:33:34;18.60;36.80
76139;DHT22;65138;50.946;7.074;2022-12-18T16:35:59;18.60;36.50
76139;DHT22;65138;50.946;7.074;2022-12-18T16:38:25;18.60;36.60
76139;DHT22;65138;50.946;7.074;2022-12-18T16:40:50;18.60;36.60
76139;DHT22;65138;50.946;7.074;2022-12-18T16:43:35;18.60;36.60
76139;DHT22;65138;50.946;7.074;2022-12-18T16:46:00;18.60;36.60
76139;DHT22;65138;50.946;7.074;2022-12-18T16:48:26;18.60;36.80
76139;DHT22;65138;50.946;7.074;2022-12-18T16:51:00;18.60;36.60
76139;DHT22;65138;50.946;7.074;2022-12-18T16:53:29;18.60;36.50
76139;DHT22;65138;50.946;7.074;2022-12-18T16:55:55;18.70;36.70
76139;DHT22;65138;50.946;7.074;2022-12-18T16:58:22;18.60;36.70
76139;DHT22;65138;50.946;7.074;2022-12-18T17:00:47;18.60;36.60
76139;DHT22;65138;50.946;7.074;2022-12-18T17:03:16;18.60;36.70
76139;DHT22;65138;50.946;7.074;2022-12-18T17:05:41;18.60;36.60
76139;DHT22;65138;50.946;7.074;2022-12-18T17:08:07;18.50;36.30
76139;DHT22;65138;50.946;7.074;2022-12-18T17:10:34;18.50;36.50
76139;DHT22;65138;50.946;7.074;2022-12-18T17:13:00;18.60;36.60
76139;DHT22;65138;50.946;7.074;2022-12-18T17:15:26;18.60;37.30
76139;DHT22;65138;50.946;7.074;2022-12-18T17:17:51;18.60;36.60
76139;DHT22;65138;50.946;7.074;2022-12-18T17:20:17;18.60;36.60
76139;DHT22;65138;50.946;7.074;2022-12-18T17:22:43;18.60;36.50
76139;DHT22;65138;50.946;7.074;2022-12-18T17:25:08;18.60;36.20
76139;DHT22;65138;50.946;7.074;2022-12-18T17:27:34;18.60;36.60
76139;DHT22;65138;50.946;7.074;2022-12-18T17:29:59;18.60;36.60
76139;DHT22;65138;50.946;7.074;2022-12-18T17:32:25;18.60;36.80
76139;DHT22;65138;50.946;7.074;2022-12-18T17:34:50;18.60;36.50
76139;DHT22;65138;50.946;7.074;2022-12-18T17:37:16;18.60;36.50
76139;DHT22;65138;50.946;7.074;2022-12-18T17:39:42;18.60;36.50
76139;DHT22;65138;50.946;7.074;2022-12-18T17:42:07;18.60;36.50
76139;DHT22;65138;50.946;7.074;2022-12-18T17:44:35;18.60;36.60
76139;DHT22;65138;50.946;7.074;2022-12-18T17:47:01;18.60;36.60
76139;DHT22;65138;50.946;7.074;2022-12-18T17:49:30;18.50;36.60
76139;DHT22;65138;50.946;7.074;2022-12-18T17:51:55;18.50;36.80
76139;DHT22;65138;50.946;7.074;2022-12-18T17:54:24;18.50;36.80
76139;DHT22;65138;50.946;7.074;2022-12-18T17:56:50;18.60;36.50
76139;DHT22;65138;50.946;7.074;2022-12-18T17:59:15;18.60;36.50
76139;DHT22;65138;50.946;7.074;2022-12-18T18:01:41;18.60;36.40
76139;DHT22;65138;50.946;7.074;2022-12-18T18:04:06;18.60;36.50
76139;DHT22;65138;50.946;7.074;2022-12-18T18:06:32;18.60;36.40
76139;DHT22;65138;50.946;7.074;2022-12-18T18:08:58;18.60;36.60
76139;DHT22;65138;50.946;7.074;2022-12-18T18:11:24;18.60;36.60
76139;DHT22;65138;50.946;7.074;2022-12-18T18:14:17;18.60;36.50
76139;DHT22;65138;50.946;7.074;2022-12-18T18:16:45;18.60;36.50
76139;DHT22;65138;50.946;7.074;2022-12-18T18:19:14;18.60;36.60
76139;DHT22;65138;50.946;7.074;2022-12-18T18:21:42;18.60;36.50
76139;DHT22;65138;50.946;7.074;2022-12-18T18:24:09;18.60;36.50
76139;DHT22;65138;50.946;7.074;2022-12-18T18:26:36;18.60;36.60
76139;DHT22;65138;50.946;7.074;2022-12-18T18:29:03;18.60;36.60
76139;DHT22;65138;50.946;7.074;2022-12-18T18:31:30;18.60;36.60
76139;DHT22;65138;50.946;7.074;2022-12-18T18:33:56;18.60;36.50
76139;DHT22;65138;50.946;7.074;2022-12-18T18:36:22;18.60;36.60
76139;DHT22;65138;50.946;7.074;2022-12-18T18:38:49;18.60;36.60
76139;DHT22;65138;50.946;7.074;2022-12-18T18:41:15;18.60;36.60
76139;DHT22;65138;50.946;7.074;2022-12-18T18:43:40;18.60;36.80
76139;DHT22;65138;50.946;7.074;2022-12-18T18:46:06;18.60;36.60
76139;DHT22;65138;50.946;7.074;2022-12-18T18:48:34;18.60;36.60
76139;DHT22;65138;50.946;7.074;2022-12-18T18:51:06;18.60;36.60
76139;DHT22;65138;50.946;7.074;2022-12-18T18:53:36;18.20;35.50
76139;DHT22;65138;50.946;7.074;2022-12-18T18:56:05;17.90;35.30
76139;DHT22;65138;50.946;7.074;2022-12-18T18:58:31;17.00;36.00
76139;DHT22;65138;50.946;7.074;2022-12-18T19:01:04;17.30;36.30
76139;DHT22;65138;50.946;7.074;2022-12-18T19:03:30;17.50;36.60
76139;DHT22;65138;50.946;7.074;2022-12-18T19:05:59;17.60;36.40
76139;DHT22;65138;50.946;7.074;2022-12-18T19:08:28;17.70;36.40
76139;DHT22;65138;50.946;7.074;2022-12-18T19:10:56;17.70;36.40
76139;DHT22;65138;50.946;7.074;2022-12-18T19:13:24;17.80;36.50
76139;DHT22;65138;50.946;7.074;2022-12-18T19:15:53;17.90;36.70
76139;DHT22;65138;50.946;7.074;2022-12-18T19:18:20;17.80;36.50
76139;DHT22;65138;50.946;7.074;2022-12-18T19:20:59;17.80;36.70
76139;DHT22;65138;50.946;7.074;2022-12-18T19:23:25;17.90;36.90
76139;DHT22;65138;50.946;7.074;2022-12-18T19:25:51;17.90;36.80
76139;DHT22;65138;50.946;7.074;2022-12-18T19:28:17;17.90;36.70
76139;DHT22;65138;50.946;7.074;2022-12-18T19:30:43;17.90;36.70
76139;DHT22;65138;50.946;7.074;2022-12-18T19:33:08;17.90;36.70
76139;DHT22;65138;50.946;7.074;2022-12-18T19:35:34;17.90;36.90
76139;DHT22;65138;50.946;7.074;2022-12-18T19:37:59;17.90;36.80
76139;DHT22;65138;50.946;7.074;2022-12-18T19:40:25;17.90;36.80
76139;DHT22;65138;50.946;7.074;2022-12-18T19:42:51;17.90;36.80
76139;DHT22;65138;50.946;7.074;2022-12-18T19:45:16;17.80;36.90
76139;DHT22;65138;50.946;7.074;2022-12-18T19:47:42;17.80;36.90
76139;DHT22;65138;50.946;7.074;2022-12-18T19:50:08;17.80;36.80
76139;DHT22;65138;50.946;7.074;2022-12-18T19:52:34;17.80;37.00
76139;DHT22;65138;50.946;7.074;2022-12-18T19:55:00;17.90;36.90
76139;DHT22;65138;50.946;7.074;2022-12-18T19:57:26;17.90;36.90
76139;DHT22;65138;50.946;7.074;2022-12-18T19:59:52;17.90;37.00
76139;DHT22;65138;50.946;7.074;2022-12-18T20:02:18;17.90;36.80
76139;DHT22;65138;50.946;7.074;2022-12-18T20:04:45;17.90;36.80
76139;DHT22;65138;50.946;7.074;2022-12-18T20:07:11;17.90;37.10
76139;DHT22;65138;50.946;7.074;2022-12-18T20:09:37;17.90;36.80
76139;DHT22;65138;50.946;7.074;2022-12-18T20:12:03;17.90;37.00
76139;DHT22;65138;50.946;7.074;2022-12-18T20:14:29;17.90;37.00
76139;DHT22;65138;50.946;7.074;2022-12-18T20:16:54;17.90;37.00
76139;DHT22;65138;50.946;7.074;2022-12-18T20:19:20;17.90;36.90
76139;DHT22;65138;50.946;7.074;2022-12-18T20:21:45;17.90;36.80
76139;DHT22;65138;50.946;7.074;2022-12-18T20:24:11;17.90;37.00
76139;DHT22;65138;50.946;7.074;2022-12-18T20:26:37;17.90;37.00
76139;DHT22;65138;50.946;7.074;2022-12-18T20:29:03;17.90;37.50
76139;DHT22;65138;50.946;7.074;2022-12-18T20:31:29;17.90;37.00
76139;DHT22;65138;50.946;7.074;2022-12-18T20:33:55;17.90;37.10
76139;DHT22;65138;50.946;7.074;2022-12-18T20:36:21;17.90;36.80
76139;DHT22;65138;50.946;7.074;2022-12-18T20:38:47;17.90;36.90
76139;DHT22;65138;50.946;7.074;2022-12-18T20:41:16;17.90;36.90
76139;DHT22;65138;50.946;7.074;2022-12-18T20:43:43;17.90;36.90
76139;DHT22;65138;50.946;7.074;2022-12-18T20:46:11;17.90;36.90
76139;DHT22;65138;50.946;7.074;2022-12-18T20:48:36;17.90;37.20
76139;DHT22;65138;50.946;7.074;2022-12-18T20:51:05;17.80;37.20
76139;DHT22;65138;50.946;7.074;2022-12-18T20:53:32;17.90;37.20
76139;DHT22;65138;50.946;7.074;2022-12-18T20:55:58;17.90;37.20
76139;DHT22;65138;50.946;7.074;2022-12-18T20:58:24;17.90;37.10
76139;DHT22;65138;50.946;7.074;2022-12-18T21:01:00;17.90;37.10
76139;DHT22;65138;50.946;7.074;2022-12-18T21:03:26;17.90;37.10
76139;DHT22;65138;50.946;7.074;2022-12-18T21:05:51;18.00;37.20
76139;DHT22;65138;50.946;7.074;2022-12-18T21:08:17;18.00;37.10
76139;DHT22;65138;50.946;7.074;2022-12-18T21:10:43;18.00;37.10
76139;DHT22;65138;50.946;7.074;2022-12-18T21:13:08;18.00;37.10
76139;DHT22;65138;50.946;7.074;2022-12-18T21:15:34;18.00;37.20
76139;DHT22;65138;50.946;7.074;2022-12-18T21:18:00;18.00;37.10
76139;DHT22;65138;50.946;7.074;2022-12-18T21:20:25;18.00;37.20
76139;DHT22;65138;50.946;7.074;2022-12-18T21:22:51;18.00;37.20
76139;DHT22;65138;50.946;7.074;2022-12-18T21:25:17;18.00;37.10
76139;DHT22;65138;50.946;7.074;2022-12-18T21:27:42;18.00;37.20
76139;DHT22;65138;50.946;7.074;2022-12-18T21:30:08;18.00;37.20
76139;DHT22;65138;50.946;7.074;2022-12-18T21:32:34;18.00;37.20
76139;DHT22;65138;50.946;7.074;2022-12-18T21:34:59;18.00;37.20
76139;DHT22;65138;50.946;7.074;2022-12-18T21:37:25;18.00;37.10
76139;DHT22;65138;50.946;7.074;2022-12-18T21:39:51;18.00;37.20
76139;DHT22;65138;50.946;7.074;2022-12-18T21:42:16;18.00;37.10
76139;DHT22;65138;50.946;7.074;2022-12-18T21:45:01;18.00;37.20
76139;DHT22;65138;50.946;7.074;2022-12-18T21:47:26;18.00;37.30
76139;DHT22;65138;50.946;7.074;2022-12-18T21:49:52;18.00;37.30
76139;DHT22;65138;50.946;7.074;2022-12-18T21:52:18;18.00;37.20
76139;DHT22;65138;50.946;7.074;2022-12-18T21:54:44;18.00;37.90
76139;DHT22;65138;50.946;7.074;2022-12-18T21:57:10;18.00;37.30
76139;DHT22;65138;50.946;7.074;2022-12-18T21:59:39;18.00;37.30
76139;DHT22;65138;50.946;7.074;2022-12-18T22:02:11;18.00;37.30
76139;DHT22;65138;50.946;7.074;2022-12-18T22:04:37;18.00;37.40
76139;DHT22;65138;50.946;7.074;2022-12-18T22:07:03;18.00;37.30
76139;DHT22;65138;50.946;7.074;2022-12-18T22:09:30;18.00;37.40
76139;DHT22;65138;50.946;7.074;2022-12-18T22:11:56;18.00;37.50
76139;DHT22;65138;50.946;7.074;2022-12-18T22:14:22;18.00;37.40
76139;DHT22;65138;50.946;7.074;2022-12-18T22:16:49;18.00;37.40
76139;DHT22;65138;50.946;7.074;2022-12-18T22:19:15;18.00;37.50
76139;DHT22;65138;50.946;7.074;2022-12-18T22:21:43;18.00;37.50
76139;DHT22;65138;50.946;7.074;2022-12-18T22:26:37;18.00;37.50
76139;DHT22;65138;50.946;7.074;2022-12-18T22:29:04;18.00;37.50
76139;DHT22;65138;50.946;7.074;2022-12-18T22:31:48;18.00;37.50
76139;DHT22;65138;50.946;7.074;2022-12-18T22:34:14;18.00;37.60
76139;DHT22;65138;50.946;7.074;2022-12-18T22:36:45;18.00;37.60
76139;DHT22;65138;50.946;7.074;2022-12-18T22:39:20;18.00;37.70
76139;DHT22;65138;50.946;7.074;2022-12-18T22:41:46;17.90;37.80
76139;DHT22;65138;50.946;7.074;2022-12-18T22:44:12;18.00;38.00
76139;DHT22;65138;50.946;7.074;2022-12-18T22:46:43;17.90;38.00
76139;DHT22;65138;50.946;7.074;2022-12-18T22:49:12;17.90;38.20